Time;durP1;ratioP1;P1;durP2;ratioP2;P2;SDS_P1;SDS_P2;PMS_P1;PMS_P2;Temp;Humidity;BMP_temperature;BMP_pressure;BME280_temperature;BME280_humidity;BME280_pressure;Samples;Min_cycle;Max_cycle;Signal;HPM_P1;HPM_P2
2023/07/25 00:00:26;;;;;;;11.50;5.63;;;16.10;99.90;;;;;;5038776;28;20029;-90
2023/07/25 00:02:51;;;;;;;18.02;8.73;;;16.00;99.90;;;;;;5055378;28;20032;-90
2023/07/25 00:05:17;;;;;;;20.65;8.70;;;16.00;99.90;;;;;;5055981;28;20036;-91
2023/07/25 00:07:43;;;;;;;19.02;7.72;;;16.10;99.90;;;;;;5054962;28;20033;-91
2023/07/25 00:10:09;;;;;;;10.30;4.90;;;16.00;99.90;;;;;;5055054;28;20029;-90
2023/07/25 00:12:37;;;;;;;10.55;3.70;;;16.00;99.90;;;;;;5022236;28;20106;-89
2023/07/25 00:15:04;;;;;;;14.00;3.65;;;16.00;99.90;;;;;;5038899;28;20428;-90
2023/07/25 00:17:30;;;;;;;8.50;3.20;;;16.00;99.90;;;;;;5039664;28;20025;-94
2023/07/25 00:19:56;;;;;;;9.05;3.30;;;16.00;99.90;;;;;;5042715;28;20133;-94
2023/07/25 00:22:22;;;;;;;9.85;2.95;;;16.00;99.90;;;;;;5043906;28;20029;-92
2023/07/25 00:24:48;;;;;;;10.15;3.78;;;15.90;99.90;;;;;;5045645;28;20029;-93
2023/07/25 00:27:14;;;;;;;8.27;3.25;;;16.00;99.90;;;;;;5042856;28;20033;-92
2023/07/25 00:29:40;;;;;;;6.10;2.75;;;15.90;99.90;;;;;;5039627;28;20474;-90
2023/07/25 00:32:06;;;;;;;13.23;3.38;;;15.90;99.90;;;;;;5038226;28;20068;-90
2023/07/25 00:34:32;;;;;;;8.68;3.03;;;15.90;99.90;;;;;;5038573;28;20021;-90
2023/07/25 00:37:01;;;;;;;9.63;3.17;;;15.90;99.90;;;;;;5054664;28;20438;-89
2023/07/25 00:39:28;;;;;;;10.02;3.47;;;15.80;99.90;;;;;;5054835;28;20183;-90
2023/07/25 00:41:53;;;;;;;6.90;3.63;;;15.80;99.90;;;;;;5054641;28;20032;-89
2023/07/25 00:44:19;;;;;;;8.18;3.17;;;15.80;99.90;;;;;;5055962;28;20021;-93
2023/07/25 00:46:45;;;;;;;10.55;3.80;;;15.80;99.90;;;;;;5058654;28;20037;-94
2023/07/25 00:49:11;;;;;;;6.47;3.15;;;15.70;99.90;;;;;;5058510;28;20029;-94
2023/07/25 00:51:37;;;;;;;9.05;3.55;;;15.70;99.90;;;;;;5041001;28;20021;-94
2023/07/25 00:54:03;;;;;;;11.63;3.65;;;15.70;99.90;;;;;;5041229;28;20025;-94
2023/07/25 00:56:29;;;;;;;11.48;3.50;;;15.70;99.90;;;;;;5040680;28;20028;-94
2023/07/25 00:58:55;;;;;;;5.30;2.75;;;15.60;99.90;;;;;;5037931;28;20053;-94
2023/07/25 01:01:21;;;;;;;7.05;3.35;;;15.60;99.90;;;;;;5039748;28;20139;-93
2023/07/25 01:03:47;;;;;;;11.25;3.58;;;15.60;99.90;;;;;;5054609;28;20025;-93
2023/07/25 01:06:15;;;;;;;8.90;3.20;;;15.60;99.90;;;;;;5037760;28;20078;-94
2023/07/25 01:09:07;;;;;;;13.95;3.55;;;15.60;99.90;;;;;;5037895;28;20116;-93
2023/07/25 01:11:33;;;;;;;10.07;3.50;;;15.50;99.90;;;;;;5038696;28;20505;-94
2023/07/25 01:13:59;;;;;;;10.85;3.45;;;15.50;99.90;;;;;;5038894;28;20017;-93
2023/07/25 01:16:26;;;;;;;7.93;3.40;;;15.50;99.90;;;;;;5039284;28;20037;-90
2023/07/25 01:18:53;;;;;;;10.73;3.40;;;15.50;99.90;;;;;;5037951;28;20017;-93
2023/07/25 01:21:21;;;;;;;7.20;3.28;;;15.40;99.90;;;;;;5054339;28;20037;-94
2023/07/25 01:23:48;;;;;;;10.00;3.70;;;15.40;99.90;;;;;;5054147;28;20079;-94
2023/07/25 01:26:16;;;;;;;12.77;4.40;;;15.40;99.90;;;;;;5037668;28;20032;-94
2023/07/25 01:28:42;;;;;;;8.57;3.78;;;15.40;99.90;;;;;;5038346;28;20079;-93
2023/07/25 01:31:07;;;;;;;12.60;3.97;;;15.40;99.90;;;;;;5057360;28;20432;-94
2023/07/25 01:33:33;;;;;;;9.98;3.50;;;15.30;99.90;;;;;;5038309;28;20032;-93
2023/07/25 01:36:00;;;;;;;8.88;3.75;;;15.30;99.90;;;;;;5037163;28;20021;-89
2023/07/25 01:38:26;;;;;;;8.77;4.25;;;15.30;99.90;;;;;;5036764;28;20052;-90
2023/07/25 01:40:51;;;;;;;10.27;4.32;;;15.30;99.90;;;;;;5037898;28;20367;-90
2023/07/25 01:43:17;;;;;;;8.38;4.07;;;15.30;99.90;;;;;;5055467;28;20619;-91
2023/07/25 01:45:42;;;;;;;9.25;4.35;;;15.20;99.90;;;;;;5050875;28;20024;-90
2023/07/25 01:48:08;;;;;;;9.10;3.80;;;15.20;99.90;;;;;;5051110;28;20108;-90
2023/07/25 01:50:34;;;;;;;10.63;4.18;;;15.20;99.90;;;;;;5065927;28;20052;-91
2023/07/25 01:52:59;;;;;;;8.35;4.03;;;15.20;99.90;;;;;;5059082;28;20028;-93
2023/07/25 01:55:28;;;;;;;10.93;4.32;;;15.10;99.90;;;;;;5055464;28;20070;-92
2023/07/25 01:57:53;;;;;;;18.48;4.40;;;15.10;99.90;;;;;;5055413;28;20045;-94
2023/07/25 02:00:19;;;;;;;8.07;3.92;;;15.10;99.90;;;;;;5038759;28;20389;-93
2023/07/25 02:02:45;;;;;;;7.97;4.03;;;15.00;99.90;;;;;;5055964;28;20055;-94
2023/07/25 02:05:10;;;;;;;7.70;4.38;;;15.00;99.90;;;;;;5039993;28;20025;-95
2023/07/25 02:07:36;;;;;;;12.10;4.47;;;15.00;99.90;;;;;;5040425;28;20071;-93
2023/07/25 02:10:02;;;;;;;11.10;3.97;;;14.90;99.90;;;;;;5037301;28;20485;-93
2023/07/25 02:12:28;;;;;;;11.60;4.07;;;14.90;99.90;;;;;;5058674;28;20029;-94
2023/07/25 02:14:54;;;;;;;9.25;4.07;;;14.80;99.90;;;;;;5058941;28;20091;-94
2023/07/25 02:17:20;;;;;;;10.25;4.55;;;14.80;99.90;;;;;;5058512;28;20025;-90
2023/07/25 02:19:46;;;;;;;12.70;5.03;;;14.80;99.90;;;;;;5057324;28;20053;-91
2023/07/25 02:22:11;;;;;;;8.25;4.53;;;14.70;99.90;;;;;;5040492;28;20025;-90
2023/07/25 02:24:37;;;;;;;13.30;4.35;;;14.70;99.90;;;;;;5056987;28;20090;-89
2023/07/25 02:27:03;;;;;;;12.05;4.93;;;14.70;99.90;;;;;;5042525;28;20036;-89
2023/07/25 02:29:30;;;;;;;9.70;4.53;;;14.70;99.90;;;;;;5058248;28;20025;-90
2023/07/25 02:31:55;;;;;;;9.68;4.90;;;14.70;99.90;;;;;;5040725;28;20428;-89
2023/07/25 02:34:21;;;;;;;11.10;4.90;;;14.70;99.90;;;;;;5057599;28;20021;-91
2023/07/25 02:36:47;;;;;;;10.30;5.13;;;14.70;99.90;;;;;;5056795;28;20028;-91
2023/07/25 02:39:12;;;;;;;11.82;4.85;;;14.70;99.90;;;;;;5056767;28;20095;-91
2023/07/25 02:41:38;;;;;;;10.25;4.40;;;14.70;99.90;;;;;;5040289;28;20037;-91
2023/07/25 02:44:04;;;;;;;10.75;4.03;;;14.70;99.90;;;;;;5040070;28;20108;-91
2023/07/25 02:46:30;;;;;;;8.50;4.13;;;14.60;99.90;;;;;;5040195;28;20039;-92
2023/07/25 02:48:55;;;;;;;9.88;4.07;;;14.60;99.90;;;;;;5056477;28;20033;-91
2023/07/25 02:51:21;;;;;;;10.98;4.13;;;14.60;99.90;;;;;;5056558;28;20093;-91
2023/07/25 02:53:47;;;;;;;10.55;4.78;;;14.60;99.90;;;;;;5039775;28;20067;-91
2023/07/25 02:56:12;;;;;;;15.23;6.22;;;14.60;99.90;;;;;;5056264;28;20093;-90
2023/07/25 02:58:38;;;;;;;10.80;5.55;;;14.50;99.90;;;;;;5056371;28;20123;-92
2023/07/25 03:01:04;;;;;;;12.50;5.53;;;14.50;99.90;;;;;;5057147;28;20029;-92
2023/07/25 03:03:30;;;;;;;9.30;5.15;;;14.40;99.90;;;;;;5040237;28;20032;-93
2023/07/25 03:05:55;;;;;;;11.85;5.40;;;14.40;99.90;;;;;;5056579;28;20035;-94
2023/07/25 03:08:21;;;;;;;7.57;4.90;;;14.40;99.90;;;;;;5056365;28;20040;-93
2023/07/25 03:10:47;;;;;;;11.30;5.50;;;14.30;99.90;;;;;;5056274;28;20029;-93
2023/07/25 03:13:13;;;;;;;11.20;4.57;;;14.30;99.90;;;;;;5056441;28;20043;-94
2023/07/25 03:15:39;;;;;;;9.20;4.88;;;14.30;99.90;;;;;;5043942;28;20025;-90
2023/07/25 03:18:04;;;;;;;7.85;4.78;;;14.30;99.90;;;;;;5069681;28;20032;-90
2023/07/25 03:20:30;;;;;;;9.30;4.70;;;14.30;99.90;;;;;;5054493;28;20178;-90
2023/07/25 03:22:56;;;;;;;8.18;4.95;;;14.30;99.90;;;;;;5060195;28;20068;-90
2023/07/25 03:25:22;;;;;;;11.23;5.00;;;14.20;99.90;;;;;;5039298;28;20025;-89
2023/07/25 03:27:47;;;;;;;11.68;5.65;;;14.20;99.90;;;;;;5055974;28;20029;-90
2023/07/25 03:30:13;;;;;;;10.27;4.80;;;14.20;99.90;;;;;;5039353;28;20049;-90
2023/07/25 03:32:39;;;;;;;11.27;4.57;;;14.20;99.90;;;;;;5039209;28;20029;-90
2023/07/25 03:35:05;;;;;;;12.85;5.65;;;14.20;99.90;;;;;;5055831;28;20037;-92
2023/07/25 03:37:31;;;;;;;8.82;5.22;;;14.20;99.90;;;;;;5055925;28;20025;-93
2023/07/25 03:39:57;;;;;;;7.75;4.30;;;14.20;99.90;;;;;;5055924;28;20051;-93
2023/07/25 03:42:22;;;;;;;12.63;4.90;;;14.20;99.90;;;;;;5055660;28;20119;-94
2023/07/25 03:44:48;;;;;;;11.85;4.95;;;14.20;99.90;;;;;;5055787;28;20086;-94
2023/07/25 03:47:14;;;;;;;10.98;5.63;;;14.20;99.90;;;;;;5056523;28;20074;-93
2023/07/25 03:49:40;;;;;;;14.00;5.70;;;14.20;99.90;;;;;;5039260;28;20094;-90
2023/07/25 03:52:06;;;;;;;8.05;5.50;;;14.20;99.90;;;;;;5038563;28;20490;-91
2023/07/25 03:54:31;;;;;;;10.88;5.50;;;14.20;99.90;;;;;;5039259;28;20469;-91
2023/07/25 03:56:57;;;;;;;10.07;5.45;;;14.20;99.90;;;;;;5042523;28;20032;-90
2023/07/25 03:59:23;;;;;;;11.43;5.65;;;14.20;99.90;;;;;;5064925;28;20056;-89
2023/07/25 04:01:48;;;;;;;8.35;4.85;;;14.20;99.90;;;;;;5064798;28;20537;-89
2023/07/25 04:04:14;;;;;;;9.48;4.57;;;14.20;99.90;;;;;;5064512;28;20040;-90
2023/07/25 04:06:40;;;;;;;8.88;5.35;;;14.20;99.90;;;;;;5058830;28;20378;-93
2023/07/25 04:09:05;;;;;;;12.57;5.03;;;14.20;99.90;;;;;;5056630;28;20086;-94
2023/07/25 04:11:31;;;;;;;10.13;5.30;;;14.20;99.90;;;;;;5038945;28;20027;-93
2023/07/25 04:13:57;;;;;;;9.68;5.88;;;14.20;99.90;;;;;;5055060;28;20021;-93
2023/07/25 04:16:22;;;;;;;9.95;4.85;;;14.20;99.90;;;;;;5054789;28;20021;-94
2023/07/25 04:18:48;;;;;;;9.25;5.78;;;14.20;99.90;;;;;;5055291;28;20036;-92
2023/07/25 04:21:14;;;;;;;12.52;5.57;;;14.20;99.90;;;;;;5039664;28;20032;-94
2023/07/25 04:23:41;;;;;;;16.25;6.63;;;14.20;99.90;;;;;;5038758;28;20035;-94
2023/07/25 04:26:06;;;;;;;10.68;6.30;;;14.20;99.90;;;;;;5055710;28;20025;-94
2023/07/25 04:28:32;;;;;;;11.88;6.10;;;14.20;99.90;;;;;;5055782;28;20029;-95
2023/07/25 04:30:58;;;;;;;14.70;6.30;;;14.20;99.90;;;;;;5055819;28;20059;-95
2023/07/25 04:33:23;;;;;;;10.43;6.13;;;14.20;99.90;;;;;;5038871;28;20423;-93
2023/07/25 04:35:49;;;;;;;7.55;5.13;;;14.20;99.90;;;;;;5055407;28;20162;-94
2023/07/25 04:38:15;;;;;;;11.05;6.20;;;14.20;99.90;;;;;;5055416;28;20036;-91
2023/07/25 04:40:43;;;;;;;12.82;6.15;;;14.20;99.90;;;;;;5054862;28;20053;-89
2023/07/25 04:43:09;;;;;;;12.43;6.60;;;14.20;99.90;;;;;;5037921;28;20492;-89
2023/07/25 04:45:34;;;;;;;11.20;6.20;;;14.20;99.90;;;;;;5038822;28;20478;-93
2023/07/25 04:48:00;;;;;;;11.30;6.50;;;14.20;99.90;;;;;;5054676;28;20432;-93
2023/07/25 04:50:26;;;;;;;10.23;6.20;;;14.20;99.90;;;;;;5038742;28;20021;-92
2023/07/25 04:52:52;;;;;;;9.77;6.32;;;14.20;99.90;;;;;;5055352;28;20101;-93
2023/07/25 04:55:17;;;;;;;14.27;6.72;;;14.20;99.90;;;;;;5055912;28;20070;-95
2023/07/25 04:57:43;;;;;;;12.38;6.53;;;14.20;99.90;;;;;;5038159;28;20394;-92
2023/07/25 05:00:09;;;;;;;12.52;6.22;;;14.20;99.90;;;;;;5055033;28;20378;-92
2023/07/25 05:02:35;;;;;;;13.60;6.88;;;14.20;99.90;;;;;;5054570;28;20108;-93
2023/07/25 05:05:05;;;;;;;10.80;6.43;;;14.20;99.90;;;;;;5038098;28;20083;-93
2023/07/25 05:07:31;;;;;;;31.83;8.35;;;14.30;99.90;;;;;;5055108;28;20429;-91
2023/07/25 05:09:56;;;;;;;11.63;6.50;;;14.30;99.90;;;;;;5038864;28;20021;-92
2023/07/25 05:12:22;;;;;;;13.13;6.47;;;14.30;99.90;;;;;;5038175;28;20021;-93
2023/07/25 05:14:48;;;;;;;12.23;6.40;;;14.30;99.90;;;;;;5054980;28;20474;-93
2023/07/25 05:17:13;;;;;;;15.05;7.38;;;14.30;99.90;;;;;;5055070;28;20123;-93
2023/07/25 05:19:41;;;;;;;14.82;7.53;;;14.30;99.90;;;;;;5055506;28;20030;-93
2023/07/25 05:22:07;;;;;;;7.80;5.97;;;14.40;99.90;;;;;;5038899;28;20045;-93
2023/07/25 05:24:33;;;;;;;15.20;6.93;;;14.40;99.90;;;;;;5058747;28;20043;-94
2023/07/25 05:26:59;;;;;;;13.63;7.00;;;14.40;99.90;;;;;;5043611;28;20119;-93
2023/07/25 05:29:24;;;;;;;11.93;6.90;;;14.40;99.90;;;;;;5049892;28;20029;-92
2023/07/25 05:31:50;;;;;;;16.65;6.97;;;14.40;99.90;;;;;;5066098;28;20021;-93
2023/07/25 05:34:16;;;;;;;11.40;7.05;;;14.50;99.90;;;;;;5065858;28;20386;-93
2023/07/25 05:36:41;;;;;;;14.02;6.90;;;14.50;99.90;;;;;;5063376;28;20037;-92
2023/07/25 05:39:07;;;;;;;16.95;7.32;;;14.50;99.90;;;;;;5062711;28;20033;-92
2023/07/25 05:41:33;;;;;;;14.23;6.80;;;14.60;99.90;;;;;;5061153;28;20429;-92
2023/07/25 05:43:58;;;;;;;12.55;7.18;;;14.60;99.90;;;;;;5041574;28;20032;-94
2023/07/25 05:46:24;;;;;;;12.50;6.70;;;14.70;99.90;;;;;;5035594;28;20033;-88
2023/07/25 05:48:49;;;;;;;12.90;5.82;;;14.70;99.90;;;;;;5036807;28;20040;-94
2023/07/25 05:51:15;;;;;;;15.13;5.60;;;14.70;99.90;;;;;;5053493;28;20029;-94
2023/07/25 05:53:41;;;;;;;12.18;5.32;;;14.80;99.90;;;;;;5053598;28;20037;-93
2023/07/25 05:56:06;;;;;;;8.18;4.60;;;14.80;99.90;;;;;;5053527;28;20063;-93
2023/07/25 05:58:32;;;;;;;11.52;4.70;;;14.90;99.90;;;;;;5036864;28;20049;-92
2023/07/25 06:01:00;;;;;;;11.85;3.88;;;14.90;99.90;;;;;;5053830;28;20029;-93
2023/07/25 06:03:26;;;;;;;9.68;4.15;;;15.00;99.90;;;;;;5053005;28;20032;-88
2023/07/25 06:05:51;;;;;;;9.65;4.13;;;15.00;99.90;;;;;;5036315;28;20087;-88
2023/07/25 06:08:17;;;;;;;12.18;4.45;;;15.10;99.90;;;;;;5036329;28;20108;-88
2023/07/25 06:10:43;;;;;;;9.18;3.70;;;15.10;99.90;;;;;;5035927;28;20470;-89
2023/07/25 06:13:09;;;;;;;9.50;4.00;;;15.20;99.90;;;;;;5036296;28;20021;-89
2023/07/25 06:15:34;;;;;;;11.07;4.13;;;15.20;99.90;;;;;;5036399;28;20485;-89
2023/07/25 06:18:01;;;;;;;13.10;4.97;;;15.30;99.90;;;;;;5036193;28;20021;-88
2023/07/25 06:20:27;;;;;;;11.98;3.95;;;15.30;99.90;;;;;;5054185;28;20115;-94
2023/07/25 06:22:52;;;;;;;8.35;3.83;;;15.30;99.90;;;;;;5054111;28;20107;-94
2023/07/25 06:25:18;;;;;;;14.23;4.70;;;15.40;99.90;;;;;;5053448;28;20029;-92
2023/07/25 06:27:44;;;;;;;13.98;4.82;;;15.40;99.90;;;;;;5037026;28;20017;-94
2023/07/25 06:30:10;;;;;;;12.20;4.68;;;15.40;99.90;;;;;;5053686;28;20033;-93
2023/07/25 06:32:37;;;;;;;15.00;3.85;;;15.40;99.90;;;;;;5036746;28;20473;-94
2023/07/25 06:35:04;;;;;;;8.02;3.50;;;15.50;99.90;;;;;;5037798;28;20021;-94
2023/07/25 06:37:33;;;;;;;6.05;3.20;;;15.50;99.90;;;;;;5053284;28;20029;-89
2023/07/25 06:40:00;;;;;;;15.88;4.30;;;15.50;99.90;;;;;;5036060;28;20021;-88
2023/07/25 06:42:28;;;;;;;11.25;3.90;;;15.60;99.90;;;;;;5052508;28;20037;-88
2023/07/25 06:44:54;;;;;;;11.82;4.15;;;15.60;99.90;;;;;;5052487;28;20116;-89
2023/07/25 06:47:20;;;;;;;9.85;4.32;;;15.60;99.90;;;;;;5052609;28;20029;-89
2023/07/25 06:49:45;;;;;;;13.52;4.57;;;15.60;99.90;;;;;;5035655;28;20029;-89
2023/07/25 06:52:11;;;;;;;11.32;3.75;;;15.70;99.90;;;;;;5036756;28;20025;-95
2023/07/25 06:54:38;;;;;;;8.90;3.88;;;15.70;99.90;;;;;;5053673;28;20029;-95
2023/07/25 06:57:04;;;;;;;8.63;3.70;;;15.80;99.90;;;;;;5054200;28;20032;-89
2023/07/25 06:59:29;;;;;;;10.88;4.85;;;15.80;99.90;;;;;;5056738;28;20468;-89
2023/07/25 07:01:56;;;;;;;12.32;4.00;;;15.80;99.90;;;;;;5044337;28;20029;-89
2023/07/25 07:04:21;;;;;;;11.40;4.25;;;15.90;99.90;;;;;;5045330;28;20111;-89
2023/07/25 07:06:47;;;;;;;9.48;3.95;;;15.90;99.90;;;;;;5059157;28;20056;-89
2023/07/25 07:09:13;;;;;;;8.73;3.55;;;16.00;99.90;;;;;;5059400;28;20119;-91
2023/07/25 07:11:39;;;;;;;8.35;3.22;;;16.00;99.90;;;;;;5066783;28;20017;-89
2023/07/25 07:14:06;;;;;;;9.85;3.22;;;16.00;99.90;;;;;;5039495;28;20017;-89
2023/07/25 07:16:34;;;;;;;9.13;4.10;;;16.10;99.90;;;;;;5024507;28;20466;-89
2023/07/25 07:19:00;;;;;;;9.95;3.33;;;16.10;99.90;;;;;;5008203;28;20489;-88
2023/07/25 07:21:25;;;;;;;10.02;3.33;;;16.10;99.90;;;;;;5024609;28;20029;-90
2023/07/25 07:23:51;;;;;;;7.80;2.90;;;16.20;99.90;;;;;;5024089;28;20351;-88
2023/07/25 07:26:17;;;;;;;8.88;2.97;;;16.20;99.90;;;;;;5022741;28;20022;-89
2023/07/25 07:28:45;;;;;;;8.85;2.42;;;16.20;99.90;;;;;;5022313;28;20029;-89
2023/07/25 07:31:15;;;;;;;7.53;2.70;;;16.30;99.90;;;;;;5022826;28;20395;-90
2023/07/25 07:33:41;;;;;;;9.10;2.45;;;16.40;99.90;;;;;;5022924;28;20055;-89
2023/07/25 07:36:07;;;;;;;6.03;2.25;;;16.40;99.90;;;;;;5022415;28;20029;-89
2023/07/25 07:38:32;;;;;;;8.43;2.53;;;16.40;99.90;;;;;;5022452;28;20036;-88
2023/07/25 07:40:58;;;;;;;11.57;2.90;;;16.50;99.90;;;;;;5022231;28;20128;-89
2023/07/25 07:43:24;;;;;;;9.75;2.90;;;16.50;99.90;;;;;;5038584;28;20063;-90
2023/07/25 07:45:49;;;;;;;5.10;1.98;;;16.50;99.90;;;;;;5022052;28;20029;-89
2023/07/25 07:48:15;;;;;;;6.78;1.92;;;16.60;99.90;;;;;;5031827;28;20537;-90
2023/07/25 07:50:45;;;;;;;7.63;2.58;;;16.60;99.90;;;;;;5041204;28;20032;-90
2023/07/25 07:53:10;;;;;;;7.78;1.80;;;16.60;99.90;;;;;;5042047;28;20028;-90
2023/07/25 07:55:42;;;;;;;7.63;2.15;;;16.70;99.90;;;;;;5037753;28;20029;-89
2023/07/25 07:58:09;;;;;;;19.45;5.70;;;16.70;99.90;;;;;;5022600;28;20055;-93
2023/07/25 08:00:35;;;;;;;6.68;2.72;;;16.80;99.90;;;;;;5026226;28;20063;-94
2023/07/25 08:03:01;;;;;;;5.93;2.25;;;16.80;99.90;;;;;;5045298;28;20025;-94
2023/07/25 08:05:27;;;;;;;6.20;1.90;;;16.90;99.90;;;;;;5041514;28;20108;-90
2023/07/25 08:07:52;;;;;;;4.35;1.70;;;16.90;99.90;;;;;;5021319;28;20033;-91
2023/07/25 08:10:18;;;;;;;6.15;1.60;;;16.90;99.90;;;;;;5020860;28;20029;-89
2023/07/25 08:12:44;;;;;;;11.20;3.05;;;17.00;99.90;;;;;;5038453;28;20020;-89
2023/07/25 08:15:09;;;;;;;4.88;1.60;;;17.00;99.90;;;;;;5021717;28;20108;-90
2023/07/25 08:17:36;;;;;;;5.13;1.75;;;17.00;99.90;;;;;;5038046;28;20027;-90
2023/07/25 08:20:02;;;;;;;5.60;1.65;;;17.10;99.90;;;;;;5021328;28;20117;-88
2023/07/25 08:22:27;;;;;;;7.95;2.05;;;17.10;99.90;;;;;;5023961;28;20056;-93
2023/07/25 08:24:53;;;;;;;7.68;2.22;;;17.10;99.90;;;;;;5024732;28;20363;-88
2023/07/25 08:27:19;;;;;;;7.88;1.65;;;17.20;99.90;;;;;;5025910;28;20032;-89
2023/07/25 08:29:48;;;;;;;8.18;1.60;;;17.20;99.90;;;;;;5040878;28;20029;-88
2023/07/25 08:32:14;;;;;;;8.05;1.88;;;17.20;99.90;;;;;;5024728;28;20028;-89
2023/07/25 08:34:46;;;;;;;7.03;1.77;;;17.30;99.90;;;;;;5037530;28;20107;-88
2023/07/25 08:37:12;;;;;;;7.18;2.60;;;17.30;99.90;;;;;;5020804;28;20470;-89
2023/07/25 08:39:37;;;;;;;7.07;1.77;;;17.40;99.90;;;;;;5021201;28;20029;-89
2023/07/25 08:42:06;;;;;;;9.32;1.70;;;17.40;99.90;;;;;;5037606;28;20111;-88
2023/07/25 08:44:34;;;;;;;9.52;2.00;;;17.40;99.90;;;;;;5037361;28;20389;-89
2023/07/25 08:47:11;;;;;;;7.75;2.35;;;17.50;99.90;;;;;;5037429;28;20501;-89
2023/07/25 08:49:40;;;;;;;6.18;1.58;;;17.50;99.90;;;;;;5076137;28;20044;-93
2023/07/25 08:52:08;;;;;;;6.53;2.10;;;17.60;99.90;;;;;;5069701;28;20063;-94
2023/07/25 08:54:36;;;;;;;8.70;2.03;;;17.60;99.90;;;;;;5050989;28;20024;-95
2023/07/25 08:57:03;;;;;;;9.18;2.53;;;17.60;99.90;;;;;;5072679;28;20103;-93
2023/07/25 08:59:30;;;;;;;11.35;2.72;;;17.60;99.90;;;;;;5049384;28;20087;-88
2023/07/25 09:01:57;;;;;;;5.20;1.67;;;17.70;99.90;;;;;;5034550;28;20037;-89
2023/07/25 09:04:24;;;;;;;6.32;1.60;;;17.70;99.90;;;;;;5033837;28;20103;-89
2023/07/25 09:06:50;;;;;;;15.27;2.85;;;17.70;99.90;;;;;;5040622;28;20088;-89
2023/07/25 09:09:19;;;;;;;13.32;2.17;;;17.70;99.90;;;;;;5026012;28;20029;-89
2023/07/25 09:11:45;;;;;;;15.65;2.97;;;17.70;99.90;;;;;;5022859;28;20029;-93
2023/07/25 09:14:12;;;;;;;10.93;1.73;;;17.70;99.90;;;;;;5039036;28;20386;-94
2023/07/25 09:16:38;;;;;;;6.75;1.33;;;17.70;99.90;;;;;;5039040;28;20014;-93
2023/07/25 09:19:04;;;;;;;7.55;1.40;;;17.70;99.90;;;;;;5036958;28;20073;-93
2023/07/25 09:21:29;;;;;;;9.38;2.28;;;17.70;99.90;;;;;;5037029;28;20026;-93
2023/07/25 09:23:57;;;;;;;9.07;1.45;;;17.70;99.90;;;;;;5023602;28;20017;-94
2023/07/25 09:26:26;;;;;;;6.03;1.02;;;17.70;99.90;;;;;;5022041;28;20387;-93
2023/07/25 09:28:57;;;;;;;11.88;1.98;;;17.70;99.90;;;;;;5038048;28;20030;-93
2023/07/25 09:31:24;;;;;;;2.65;0.80;;;17.70;99.90;;;;;;5038940;28;20025;-92
2023/07/25 09:33:52;;;;;;;6.22;1.10;;;17.70;99.90;;;;;;5039272;28;20023;-93
2023/07/25 09:36:18;;;;;;;4.85;1.48;;;17.80;99.90;;;;;;5034816;28;20051;-88
2023/07/25 09:38:52;;;;;;;4.65;1.10;;;17.80;99.90;;;;;;5036330;28;20025;-88
2023/07/25 09:41:19;;;;;;;4.22;1.48;;;17.90;99.90;;;;;;5033255;28;20029;-88
2023/07/25 09:43:44;;;;;;;5.20;1.40;;;17.90;99.90;;;;;;5016696;28;20120;-88
2023/07/25 09:46:11;;;;;;;6.53;1.20;;;18.00;99.90;;;;;;5000547;28;20053;-88
2023/07/25 09:48:42;;;;;;;4.13;1.05;;;18.00;99.90;;;;;;5016739;28;20021;-88
2023/07/25 09:51:09;;;;;;;5.13;1.02;;;18.20;99.90;;;;;;5033260;28;20109;-88
2023/07/25 09:53:35;;;;;;;4.03;1.27;;;18.20;99.90;;;;;;5016941;28;20369;-88
2023/07/25 09:56:01;;;;;;;4.07;0.90;;;18.30;99.90;;;;;;5005441;28;20025;-93
2023/07/25 09:58:27;;;;;;;4.05;1.20;;;18.30;99.90;;;;;;5029357;28;20048;-93
2023/07/25 10:00:55;;;;;;;3.95;0.98;;;18.30;99.90;;;;;;5070756;28;20419;-93
2023/07/25 10:03:22;;;;;;;2.95;1.00;;;18.30;99.90;;;;;;5066154;28;20024;-94
2023/07/25 10:05:48;;;;;;;4.18;1.15;;;18.30;99.90;;;;;;5047251;28;20052;-94
2023/07/25 10:08:16;;;;;;;4.30;0.93;;;18.40;99.90;;;;;;5059096;28;20037;-93
2023/07/25 10:10:43;;;;;;;3.03;0.70;;;18.40;99.90;;;;;;5059673;28;20042;-94
2023/07/25 10:13:10;;;;;;;5.53;0.68;;;18.40;99.90;;;;;;5059503;28;20027;-89
2023/07/25 10:15:36;;;;;;;3.53;1.30;;;18.50;99.90;;;;;;5043918;28;20021;-88
2023/07/25 10:18:04;;;;;;;6.25;1.17;;;18.60;99.90;;;;;;5078091;28;20024;-88
2023/07/25 10:20:30;;;;;;;3.15;1.50;;;18.70;99.90;;;;;;5058282;28;20043;-89
2023/07/25 10:23:07;;;;;;;3.05;1.35;;;18.80;99.90;;;;;;5056948;28;20021;-90
2023/07/25 10:25:34;;;;;;;4.18;0.93;;;18.90;99.90;;;;;;5057868;28;20099;-90
2023/07/25 10:28:00;;;;;;;1.98;0.80;;;18.90;99.90;;;;;;5056704;28;20072;-91
2023/07/25 10:30:31;;;;;;;2.70;1.13;;;19.00;99.90;;;;;;5062765;28;20017;-91
2023/07/25 10:33:02;;;;;;;6.63;1.45;;;19.10;99.90;;;;;;5066031;28;20020;-91
2023/07/25 10:36:00;;;;;;;3.33;0.80;;;19.10;99.90;;;;;;5069018;28;20040;-91
2023/07/25 10:38:35;;;;;;;2.22;0.90;;;19.20;99.90;;;;;;5036651;28;20116;-91
2023/07/25 10:41:08;;;;;;;3.58;1.10;;;19.30;99.90;;;;;;5070915;28;20017;-92
2023/07/25 10:43:46;;;;;;;2.85;0.77;;;19.30;99.90;;;;;;5069100;28;20032;-92
2023/07/25 10:46:17;;;;;;;2.95;0.63;;;19.50;99.90;;;;;;5053424;28;20029;-90
2023/07/25 10:48:50;;;;;;;5.88;0.95;;;19.50;99.90;;;;;;5049159;28;20036;-92
2023/07/25 10:51:17;;;;;;;3.83;0.90;;;19.60;99.90;;;;;;5076694;28;20025;-91
2023/07/25 10:54:12;;;;;;;2.28;0.70;;;19.60;99.90;;;;;;5079972;28;20024;-92
2023/07/25 10:56:39;;;;;;;3.38;0.90;;;19.60;99.90;;;;;;5059473;28;20036;-91
2023/07/25 10:59:08;;;;;;;2.03;0.70;;;19.60;99.90;;;;;;5059121;28;20045;-92
2023/07/25 11:01:46;;;;;;;1.15;0.60;;;19.70;99.90;;;;;;5046551;28;20063;-92
2023/07/25 11:04:29;;;;;;;2.47;0.77;;;19.80;99.90;;;;;;5057318;28;20029;-91
2023/07/25 11:07:14;;;;;;;2.83;0.98;;;19.80;99.90;;;;;;5059304;28;20033;-91
2023/07/25 11:09:44;;;;;;;2.40;0.85;;;19.90;99.90;;;;;;5057045;28;20104;-91
2023/07/25 11:12:11;;;;;;;4.07;0.93;;;20.00;99.90;;;;;;5054309;28;20127;-91
2023/07/25 11:14:44;;;;;;;1.98;0.80;;;20.10;99.90;;;;;;5054959;28;20047;-90
2023/07/25 11:17:11;;;;;;;2.63;0.95;;;20.10;99.90;;;;;;5059694;28;20029;-91
2023/07/25 11:19:37;;;;;;;3.13;0.95;;;20.10;99.90;;;;;;5059529;28;20210;-93
2023/07/25 11:22:11;;;;;;;1.88;0.80;;;20.20;99.90;;;;;;5059439;28;20105;-91
2023/07/25 11:24:44;;;;;;;3.65;1.00;;;20.20;99.90;;;;;;5044071;28;20029;-92
2023/07/25 11:27:11;;;;;;;3.78;0.85;;;20.30;99.90;;;;;;5039422;28;20025;-92
2023/07/25 11:29:37;;;;;;;2.10;0.50;;;20.40;99.90;;;;;;5039446;28;20032;-91
2023/07/25 11:32:03;;;;;;;11.18;0.90;;;20.40;99.90;;;;;;5042845;28;20023;-92
2023/07/25 11:34:29;;;;;;;3.50;0.70;;;20.40;99.90;;;;;;5050323;28;20119;-91
2023/07/25 11:36:54;;;;;;;2.97;0.80;;;20.40;99.90;;;;;;5076736;28;20024;-93
2023/07/25 11:39:21;;;;;;;1.38;0.55;;;20.40;99.90;;;;;;5058982;28;20389;-94
2023/07/25 11:41:47;;;;;;;1.63;0.82;;;20.40;99.90;;;;;;5059776;28;20025;-91
2023/07/25 11:44:15;;;;;;;2.63;0.70;;;20.50;99.90;;;;;;5060218;28;20024;-92
2023/07/25 11:46:44;;;;;;;2.40;0.55;;;20.50;99.90;;;;;;5060815;28;20495;-92
2023/07/25 11:49:13;;;;;;;2.75;1.00;;;20.70;99.90;;;;;;5060486;28;20453;-92
2023/07/25 11:51:39;;;;;;;5.90;1.00;;;20.70;99.90;;;;;;5059897;28;20023;-92
2023/07/25 11:54:06;;;;;;;4.35;0.98;;;20.80;99.90;;;;;;5058871;28;20017;-92
2023/07/25 11:56:33;;;;;;;4.13;0.70;;;20.80;99.90;;;;;;5059498;28;20063;-90
2023/07/25 11:59:03;;;;;;;1.80;0.60;;;20.80;99.90;;;;;;5059393;28;20052;-91
2023/07/25 12:01:33;;;;;;;2.88;0.52;;;20.90;99.90;;;;;;5060019;28;20032;-90
2023/07/25 12:04:02;;;;;;;1.52;0.55;;;21.00;99.90;;;;;;5059330;28;20024;-90
2023/07/25 12:06:30;;;;;;;5.28;0.88;;;21.00;99.90;;;;;;5050662;28;20052;-90
2023/07/25 12:08:56;;;;;;;1.58;0.68;;;21.00;99.90;;;;;;5039397;28;20107;-89
2023/07/25 12:11:22;;;;;;;2.78;0.73;;;21.10;99.90;;;;;;5039374;28;20124;-91
2023/07/25 12:13:56;;;;;;;3.05;0.82;;;21.10;99.90;;;;;;5066119;28;20223;-89
2023/07/25 12:16:29;;;;;;;3.08;0.80;;;21.10;99.90;;;;;;5059178;28;20067;-90
2023/07/25 12:19:15;;;;;;;2.25;0.85;;;21.20;99.90;;;;;;5060094;28;20028;-90
2023/07/25 12:21:46;;;;;;;1.98;0.70;;;21.20;99.80;;;;;;5058528;28;20374;-90
2023/07/25 12:24:12;;;;;;;;;;;21.30;99.90;;;;;;5060163;28;20021;-91
2023/07/25 12:26:54;;;;;;;3.45;1.10;;;21.40;99.90;;;;;;5089588;28;19979;-91
2023/07/25 12:29:24;;;;;;;2.55;0.65;;;21.50;99.80;;;;;;5090480;28;20077;-91
2023/07/25 12:31:51;;;;;;;2.85;0.75;;;21.50;99.50;;;;;;5073679;28;20021;-91
2023/07/25 12:34:20;;;;;;;3.97;0.90;;;21.50;99.40;;;;;;5074760;28;20024;-90
2023/07/25 12:36:50;;;;;;;5.95;0.70;;;21.60;99.00;;;;;;5071540;28;20058;-90
2023/07/25 12:39:16;;;;;;;1.05;0.50;;;21.60;98.60;;;;;;5083141;28;20029;-90
2023/07/25 12:41:43;;;;;;;1.17;0.57;;;21.60;98.30;;;;;;5067060;28;20027;-94